sensor_id;sensor_type;location;lat;lon;timestamp;pressure;altitude;pressure_sealevel;temperature
23992;BMP280;12205;50.600;4.608;2023-02-15T00:01:48;101346.97;;;2.89
23992;BMP280;12205;50.600;4.608;2023-02-15T00:04:18;101345.91;;;2.85
23992;BMP280;12205;50.600;4.608;2023-02-15T00:06:46;101339.31;;;2.82
23992;BMP280;12205;50.600;4.608;2023-02-15T00:09:14;101352.50;;;2.82
23992;BMP280;12205;50.600;4.608;2023-02-15T00:11:41;101342.50;;;2.79
23992;BMP280;12205;50.600;4.608;2023-02-15T00:14:18;101339.31;;;2.77
23992;BMP280;12205;50.600;4.608;2023-02-15T00:16:47;101322.44;;;2.73
23992;BMP280;12205;50.600;4.608;2023-02-15T00:19:17;101326.13;;;2.72
23992;BMP280;12205;50.600;4.608;2023-02-15T00:21:47;101328.25;;;2.70
23992;BMP280;12205;50.600;4.608;2023-02-15T00:24:17;101328.25;;;2.70
23992;BMP280;12205;50.600;4.608;2023-02-15T00:26:46;101327.72;;;2.68
23992;BMP280;12205;50.600;4.608;2023-02-15T00:29:16;101330.34;;;2.68
23992;BMP280;12205;50.600;4.608;2023-02-15T00:31:43;101327.22;;;2.66
23992;BMP280;12205;50.600;4.608;2023-02-15T00:34:13;101329.34;;;2.64
23992;BMP280;12205;50.600;4.608;2023-02-15T00:36:41;101329.88;;;2.61
23992;BMP280;12205;50.600;4.608;2023-02-15T00:39:10;101317.75;;;2.60
23992;BMP280;12205;50.600;4.608;2023-02-15T00:41:37;101323.53;;;2.56
23992;BMP280;12205;50.600;4.608;2023-02-15T00:44:06;101318.25;;;2.56
23992;BMP280;12205;50.600;4.608;2023-02-15T00:46:33;101315.13;;;2.54
23992;BMP280;12205;50.600;4.608;2023-02-15T00:49:01;101322.50;;;2.52
23992;BMP280;12205;50.600;4.608;2023-02-15T00:51:28;101323.56;;;2.51
23992;BMP280;12205;50.600;4.608;2023-02-15T00:53:56;101316.16;;;2.48
23992;BMP280;12205;50.600;4.608;2023-02-15T00:56:24;101304.56;;;2.44
23992;BMP280;12205;50.600;4.608;2023-02-15T00:58:54;101308.28;;;2.43
23992;BMP280;12205;50.600;4.608;2023-02-15T01:01:21;101307.22;;;2.39
23992;BMP280;12205;50.600;4.608;2023-02-15T01:03:50;101301.66;;;2.35
23992;BMP280;12205;50.600;4.608;2023-02-15T01:06:18;101299.31;;;2.34
23992;BMP280;12205;50.600;4.608;2023-02-15T01:08:46;101290.88;;;2.32
23992;BMP280;12205;50.600;4.608;2023-02-15T01:11:16;101290.09;;;2.31
23992;BMP280;12205;50.600;4.608;2023-02-15T01:13:50;101291.94;;;2.26
23992;BMP280;12205;50.600;4.608;2023-02-15T01:16:18;101256.88;;;2.25
23992;BMP280;12205;50.600;4.608;2023-02-15T01:18:45;101244.75;;;2.24
23992;BMP280;12205;50.600;4.608;2023-02-15T01:21:18;101234.47;;;2.22
23992;BMP280;12205;50.600;4.608;2023-02-15T01:23:46;101226.00;;;2.20
23992;BMP280;12205;50.600;4.608;2023-02-15T01:26:14;101226.00;;;2.20
23992;BMP280;12205;50.600;4.608;2023-02-15T01:28:43;101228.91;;;2.19
23992;BMP280;12205;50.600;4.608;2023-02-15T01:31:16;101212.31;;;2.08
23992;BMP280;12205;50.600;4.608;2023-02-15T01:33:45;101224.44;;;2.14
23992;BMP280;12205;50.600;4.608;2023-02-15T01:36:12;101235.00;;;2.14
23992;BMP280;12205;50.600;4.608;2023-02-15T01:38:40;101236.03;;;2.13
23992;BMP280;12205;50.600;4.608;2023-02-15T01:41:07;101236.03;;;2.13
23992;BMP280;12205;50.600;4.608;2023-02-15T01:43:51;101234.72;;;2.11
23992;BMP280;12205;50.600;4.608;2023-02-15T01:46:26;101227.09;;;2.09
23992;BMP280;12205;50.600;4.608;2023-02-15T01:49:01;101234.22;;;2.09
23992;BMP280;12205;50.600;4.608;2023-02-15T01:51:33;101232.63;;;2.08
23992;BMP280;12205;50.600;4.608;2023-02-15T01:54:08;101228.41;;;2.06
23992;BMP280;12205;50.600;4.608;2023-02-15T01:56:39;101234.22;;;2.09
23992;BMP280;12205;50.600;4.608;2023-02-15T01:59:14;101234.22;;;2.09
23992;BMP280;12205;50.600;4.608;2023-02-15T02:01:45;101236.31;;;2.06
23992;BMP280;12205;50.600;4.608;2023-02-15T02:04:20;101242.38;;;2.07
23992;BMP280;12205;50.600;4.608;2023-02-15T02:06:50;101239.72;;;2.07
23992;BMP280;12205;50.600;4.608;2023-02-15T02:09:18;101232.34;;;2.04
23992;BMP280;12205;50.600;4.608;2023-02-15T02:11:47;101222.34;;;2.01
23992;BMP280;12205;50.600;4.608;2023-02-15T02:14:16;101212.84;;;2.05
23992;BMP280;12205;50.600;4.608;2023-02-15T02:16:52;101197.03;;;2.05
23992;BMP280;12205;50.600;4.608;2023-02-15T02:20:07;101213.38;;;2.02
23992;BMP280;12205;50.600;4.608;2023-02-15T02:23:09;101211.03;;;1.95
23992;BMP280;12205;50.600;4.608;2023-02-15T02:29:33;101198.13;;;1.88
23992;BMP280;12205;50.600;4.608;2023-02-15T02:35:44;101197.09;;;1.84
23992;BMP280;12205;50.600;4.608;2023-02-15T02:38:24;101202.34;;;1.79
23992;BMP280;12205;50.600;4.608;2023-02-15T02:41:03;101196.56;;;1.77
23992;BMP280;12205;50.600;4.608;2023-02-15T02:43:43;101184.44;;;1.76
23992;BMP280;12205;50.600;4.608;2023-02-15T02:46:21;101195.50;;;1.73
23992;BMP280;12205;50.600;4.608;2023-02-15T02:48:49;101183.09;;;1.68
23992;BMP280;12205;50.600;4.608;2023-02-15T02:51:18;101162.28;;;1.67
23992;BMP280;12205;50.600;4.608;2023-02-15T02:53:51;101152.28;;;1.69
23992;BMP280;12205;50.600;4.608;2023-02-15T02:56:27;101158.09;;;1.66
23992;BMP280;12205;50.600;4.608;2023-02-15T02:58:59;101164.94;;;1.67
23992;BMP280;12205;50.600;4.608;2023-02-15T03:01:32;101176.53;;;1.66
23992;BMP280;12205;50.600;4.608;2023-02-15T03:04:07;101172.84;;;1.62
23992;BMP280;12205;50.600;4.608;2023-02-15T03:06:46;101180.50;;;1.63
23992;BMP280;12205;50.600;4.608;2023-02-15T03:09:23;101169.16;;;1.63
23992;BMP280;12205;50.600;4.608;2023-02-15T03:11:51;101172.84;;;1.62
23992;BMP280;12205;50.600;4.608;2023-02-15T03:14:21;101172.84;;;1.62
23992;BMP280;12205;50.600;4.608;2023-02-15T03:16:50;101167.31;;;1.58
23992;BMP280;12205;50.600;4.608;2023-02-15T03:19:25;101156.00;;;1.58
23992;BMP280;12205;50.600;4.608;2023-02-15T03:22:00;101153.34;;;1.58
23992;BMP280;12205;50.600;4.608;2023-02-15T03:24:40;101167.59;;;1.57
23992;BMP280;12205;50.600;4.608;2023-02-15T03:27:15;101170.47;;;1.55
23992;BMP280;12205;50.600;4.608;2023-02-15T03:29:47;101168.13;;;1.53
23992;BMP280;12205;50.600;4.608;2023-02-15T03:32:16;101158.09;;;1.56
23992;BMP280;12205;50.600;4.608;2023-02-15T03:34:44;101153.63;;;1.56
23992;BMP280;12205;50.600;4.608;2023-02-15T03:37:22;101130.16;;;1.54
23992;BMP280;12205;50.600;4.608;2023-02-15T03:39:57;101134.13;;;1.52
23992;BMP280;12205;50.600;4.608;2023-02-15T03:42:53;101140.19;;;1.52
23992;BMP280;12205;50.600;4.608;2023-02-15T03:45:27;101155.44;;;1.50
23992;BMP280;12205;50.600;4.608;2023-02-15T03:47:58;101156.53;;;1.49
23992;BMP280;12205;50.600;4.608;2023-02-15T03:50:29;101145.44;;;1.47
23992;BMP280;12205;50.600;4.608;2023-02-15T03:53:19;101152.81;;;1.45
23992;BMP280;12205;50.600;4.608;2023-02-15T03:55:48;101154.91;;;1.43
23992;BMP280;12205;50.600;4.608;2023-02-15T03:58:15;101146.50;;;1.41
23992;BMP280;12205;50.600;4.608;2023-02-15T04:01:09;101149.41;;;1.40
23992;BMP280;12205;50.600;4.608;2023-02-15T04:04:01;101145.19;;;1.39
23992;BMP280;12205;50.600;4.608;2023-02-15T04:06:29;101154.41;;;1.36
23992;BMP280;12205;50.600;4.608;2023-02-15T04:08:58;101155.50;;;1.30
23992;BMP280;12205;50.600;4.608;2023-02-15T04:11:43;101164.44;;;1.29
23992;BMP280;12205;50.600;4.608;2023-02-15T04:14:11;101158.34;;;1.28
23992;BMP280;12205;50.600;4.608;2023-02-15T04:16:52;101158.09;;;1.25
23992;BMP280;12205;50.600;4.608;2023-02-15T04:19:19;101151.25;;;1.24
23992;BMP280;12205;50.600;4.608;2023-02-15T04:22:03;101155.75;;;1.23
23992;BMP280;12205;50.600;4.608;2023-02-15T04:24:49;101158.38;;;1.18
23992;BMP280;12205;50.600;4.608;2023-02-15T04:27:34;101149.13;;;1.15
23992;BMP280;12205;50.600;4.608;2023-02-15T04:30:01;101152.81;;;1.14
23992;BMP280;12205;50.600;4.608;2023-02-15T04:32:28;101157.31;;;1.14
23992;BMP280;12205;50.600;4.608;2023-02-15T04:34:55;101160.19;;;1.12
23992;BMP280;12205;50.600;4.608;2023-02-15T04:37:22;101148.84;;;1.12
23992;BMP280;12205;50.600;4.608;2023-02-15T04:39:50;101146.00;;;1.13
23992;BMP280;12205;50.600;4.608;2023-02-15T04:42:18;101150.72;;;1.11
23992;BMP280;12205;50.600;4.608;2023-02-15T04:44:45;101148.59;;;1.08
23992;BMP280;12205;50.600;4.608;2023-02-15T04:47:12;101137.00;;;0.99
23992;BMP280;12205;50.600;4.608;2023-02-15T04:49:39;101140.16;;;1.06
23992;BMP280;12205;50.600;4.608;2023-02-15T04:52:06;101130.72;;;1.05
23992;BMP280;12205;50.600;4.608;2023-02-15T04:54:33;101134.63;;;1.08
23992;BMP280;12205;50.600;4.608;2023-02-15T04:57:02;101135.97;;;1.05
23992;BMP280;12205;50.600;4.608;2023-02-15T04:59:29;101147.00;;;1.02
23992;BMP280;12205;50.600;4.608;2023-02-15T05:01:56;101137.53;;;1.01
23992;BMP280;12205;50.600;4.608;2023-02-15T05:04:23;101130.69;;;1.00
23992;BMP280;12205;50.600;4.608;2023-02-15T05:06:51;101129.09;;;0.99
23992;BMP280;12205;50.600;4.608;2023-02-15T05:09:18;101118.06;;;0.97
23992;BMP280;12205;50.600;4.608;2023-02-15T05:11:45;101117.50;;;0.95
23992;BMP280;12205;50.600;4.608;2023-02-15T05:14:13;101117.00;;;0.93
23992;BMP280;12205;50.600;4.608;2023-02-15T05:16:40;101106.47;;;0.93
23992;BMP280;12205;50.600;4.608;2023-02-15T05:19:08;101096.47;;;0.84
23992;BMP280;12205;50.600;4.608;2023-02-15T05:21:35;101105.94;;;0.91
23992;BMP280;12205;50.600;4.608;2023-02-15T05:24:02;101104.88;;;0.92
23992;BMP280;12205;50.600;4.608;2023-02-15T05:26:50;101108.81;;;0.89
23992;BMP280;12205;50.600;4.608;2023-02-15T05:29:36;101106.97;;;0.84
23992;BMP280;12205;50.600;4.608;2023-02-15T05:32:03;101102.22;;;0.81
23992;BMP280;12205;50.600;4.608;2023-02-15T05:34:30;101095.41;;;0.80
23992;BMP280;12205;50.600;4.608;2023-02-15T05:36:58;101071.41;;;0.72
23992;BMP280;12205;50.600;4.608;2023-02-15T05:39:25;101084.88;;;0.80
23992;BMP280;12205;50.600;4.608;2023-02-15T05:41:52;101083.28;;;0.79
23992;BMP280;12205;50.600;4.608;2023-02-15T05:44:19;101083.28;;;0.79
23992;BMP280;12205;50.600;4.608;2023-02-15T05:46:47;101076.97;;;0.80
23992;BMP280;12205;50.600;4.608;2023-02-15T05:49:14;101081.69;;;0.78
23992;BMP280;12205;50.600;4.608;2023-02-15T05:51:41;101086.44;;;0.81
23992;BMP280;12205;50.600;4.608;2023-02-15T05:54:09;101098.03;;;0.80
23992;BMP280;12205;50.600;4.608;2023-02-15T05:56:36;101105.63;;;0.77
23992;BMP280;12205;50.600;4.608;2023-02-15T05:59:03;101098.78;;;0.76
23992;BMP280;12205;50.600;4.608;2023-02-15T06:01:30;101099.59;;;0.76
23992;BMP280;12205;50.600;4.608;2023-02-15T06:03:58;101100.91;;;0.74
23992;BMP280;12205;50.600;4.608;2023-02-15T06:06:25;101091.16;;;0.74
23992;BMP280;12205;50.600;4.608;2023-02-15T06:08:52;101084.31;;;0.73
23992;BMP280;12205;50.600;4.608;2023-02-15T06:11:19;101073.78;;;0.73
23992;BMP280;12205;50.600;4.608;2023-02-15T06:13:47;101072.47;;;0.76
23992;BMP280;12205;50.600;4.608;2023-02-15T06:16:14;101070.63;;;0.71
23992;BMP280;12205;50.600;4.608;2023-02-15T06:18:41;101076.94;;;0.70
23992;BMP280;12205;50.600;4.608;2023-02-15T06:21:10;101083.25;;;0.69
23992;BMP280;12205;50.600;4.608;2023-02-15T06:23:37;101087.47;;;0.70
23992;BMP280;12205;50.600;4.608;2023-02-15T06:26:04;101079.56;;;0.70
23992;BMP280;12205;50.600;4.608;2023-02-15T06:28:31;101074.31;;;0.70
23992;BMP280;12205;50.600;4.608;2023-02-15T06:30:58;101085.66;;;0.71
23992;BMP280;12205;50.600;4.608;2023-02-15T06:33:25;101087.72;;;0.68
23992;BMP280;12205;50.600;4.608;2023-02-15T06:35:52;101095.38;;;0.65
23992;BMP280;12205;50.600;4.608;2023-02-15T06:38:21;101095.09;;;0.66
23992;BMP280;12205;50.600;4.608;2023-02-15T06:40:48;101095.88;;;0.67
23992;BMP280;12205;50.600;4.608;2023-02-15T06:43:15;101093.78;;;0.69
23992;BMP280;12205;50.600;4.608;2023-02-15T06:45:42;101082.47;;;0.68
23992;BMP280;12205;50.600;4.608;2023-02-15T06:48:10;101083.25;;;0.69
23992;BMP280;12205;50.600;4.608;2023-02-15T06:50:37;101084.31;;;0.68
23992;BMP280;12205;50.600;4.608;2023-02-15T06:53:04;101087.72;;;0.68
23992;BMP280;12205;50.600;4.608;2023-02-15T06:55:32;101083.25;;;0.69
23992;BMP280;12205;50.600;4.608;2023-02-15T06:58:00;101079.06;;;0.73
23992;BMP280;12205;50.600;4.608;2023-02-15T07:00:27;101085.38;;;0.77
23992;BMP280;12205;50.600;4.608;2023-02-15T07:02:54;101097.47;;;0.78
23992;BMP280;12205;50.600;4.608;2023-02-15T07:05:23;101099.84;;;0.80
23992;BMP280;12205;50.600;4.608;2023-02-15T07:07:50;101099.34;;;0.83
23992;BMP280;12205;50.600;4.608;2023-02-15T07:10:18;101097.50;;;0.89
23992;BMP280;12205;50.600;4.608;2023-02-15T07:12:46;101103.28;;;0.91
23992;BMP280;12205;50.600;4.608;2023-02-15T07:15:15;101092.25;;;0.99
23992;BMP280;12205;50.600;4.608;2023-02-15T07:17:43;101067.50;;;1.10
23992;BMP280;12205;50.600;4.608;2023-02-15T07:20:14;101044.34;;;1.23
23992;BMP280;12205;50.600;4.608;2023-02-15T07:22:41;101017.47;;;1.31
23992;BMP280;12205;50.600;4.608;2023-02-15T07:25:10;101012.69;;;1.43
23992;BMP280;12205;50.600;4.608;2023-02-15T07:27:38;101008.44;;;1.58
23992;BMP280;12205;50.600;4.608;2023-02-15T07:30:10;100997.09;;;1.67
23992;BMP280;12205;50.600;4.608;2023-02-15T07:32:38;100990.44;;;1.80
23992;BMP280;12205;50.600;4.608;2023-02-15T07:35:26;100989.56;;;1.95
23992;BMP280;12205;50.600;4.608;2023-02-15T07:37:54;100978.44;;;2.09
23992;BMP280;12205;50.600;4.608;2023-02-15T07:40:21;100974.41;;;2.21
23992;BMP280;12205;50.600;4.608;2023-02-15T07:42:49;100979.03;;;2.35
23992;BMP280;12205;50.600;4.608;2023-02-15T07:45:20;100978.41;;;2.48
23992;BMP280;12205;50.600;4.608;2023-02-15T07:47:47;100968.81;;;2.63
23992;BMP280;12205;50.600;4.608;2023-02-15T07:50:15;100961.81;;;2.72
23992;BMP280;12205;50.600;4.608;2023-02-15T07:52:42;100958.06;;;2.83
23992;BMP280;12205;50.600;4.608;2023-02-15T07:55:09;100969.06;;;2.90
23992;BMP280;12205;50.600;4.608;2023-02-15T07:57:42;100963.66;;;3.01
23992;BMP280;12205;50.600;4.608;2023-02-15T08:00:12;100965.69;;;3.09
23992;BMP280;12205;50.600;4.608;2023-02-15T08:02:41;100971.47;;;3.16
23992;BMP280;12205;50.600;4.608;2023-02-15T08:05:09;100965.00;;;3.27
23992;BMP280;12205;50.600;4.608;2023-02-15T08:07:36;100964.91;;;3.33
23992;BMP280;12205;50.600;4.608;2023-02-15T08:10:04;100967.22;;;3.39
23992;BMP280;12205;50.600;4.608;2023-02-15T08:12:32;100977.69;;;3.50
23992;BMP280;12205;50.600;4.608;2023-02-15T08:14:59;100986.81;;;3.57
23992;BMP280;12205;50.600;4.608;2023-02-15T08:17:26;100989.91;;;3.65
23992;BMP280;12205;50.600;4.608;2023-02-15T08:19:55;100989.28;;;3.73
23992;BMP280;12205;50.600;4.608;2023-02-15T08:22:22;100992.06;;;3.82
23992;BMP280;12205;50.600;4.608;2023-02-15T08:24:50;100991.72;;;3.88
23992;BMP280;12205;50.600;4.608;2023-02-15T08:27:17;100992.94;;;3.96
23992;BMP280;12205;50.600;4.608;2023-02-15T08:29:52;100991.19;;;4.05
23992;BMP280;12205;50.600;4.608;2023-02-15T08:32:19;101002.44;;;4.16
23992;BMP280;12205;50.600;4.608;2023-02-15T08:34:46;100997.53;;;4.23
23992;BMP280;12205;50.600;4.608;2023-02-15T08:37:16;100998.97;;;4.35
23992;BMP280;12205;50.600;4.608;2023-02-15T08:39:43;101001.44;;;4.45
23992;BMP280;12205;50.600;4.608;2023-02-15T08:42:11;101000.22;;;4.56
23992;BMP280;12205;50.600;4.608;2023-02-15T08:44:39;101010.63;;;4.66
23992;BMP280;12205;50.600;4.608;2023-02-15T08:47:06;101015.19;;;4.80
23992;BMP280;12205;50.600;4.608;2023-02-15T08:49:33;101031.38;;;4.92
23992;BMP280;12205;50.600;4.608;2023-02-15T08:52:00;101035.91;;;5.06
23992;BMP280;12205;50.600;4.608;2023-02-15T08:54:29;101058.03;;;5.15
23992;BMP280;12205;50.600;4.608;2023-02-15T08:56:56;101060.97;;;5.27
23992;BMP280;12205;50.600;4.608;2023-02-15T08:59:24;101079.81;;;5.39
23992;BMP280;12205;50.600;4.608;2023-02-15T09:01:53;101096.22;;;5.55
23992;BMP280;12205;50.600;4.608;2023-02-15T09:04:21;101095.72;;;5.67
23992;BMP280;12205;50.600;4.608;2023-02-15T09:06:49;101109.28;;;5.80
23992;BMP280;12205;50.600;4.608;2023-02-15T09:09:18;101107.69;;;5.92
23992;BMP280;12205;50.600;4.608;2023-02-15T09:11:49;101120.41;;;6.04
23992;BMP280;12205;50.600;4.608;2023-02-15T09:14:19;101117.03;;;6.13
23992;BMP280;12205;50.600;4.608;2023-02-15T09:16:48;101128.13;;;6.28
23992;BMP280;12205;50.600;4.608;2023-02-15T09:19:19;101132.91;;;6.40
23992;BMP280;12205;50.600;4.608;2023-02-15T09:21:47;101140.06;;;6.54
23992;BMP280;12205;50.600;4.608;2023-02-15T09:24:16;101147.94;;;6.68
23992;BMP280;12205;50.600;4.608;2023-02-15T09:26:45;101144.78;;;6.79
23992;BMP280;12205;50.600;4.608;2023-02-15T09:29:15;101150.63;;;6.90
23992;BMP280;12205;50.600;4.608;2023-02-15T09:31:46;101148.50;;;7.01
23992;BMP280;12205;50.600;4.608;2023-02-15T09:34:17;101163.88;;;7.13
23992;BMP280;12205;50.600;4.608;2023-02-15T09:36:45;101158.09;;;7.20
23992;BMP280;12205;50.600;4.608;2023-02-15T09:39:15;101167.72;;;7.29
23992;BMP280;12205;50.600;4.608;2023-02-15T09:42:43;101172.31;;;7.46
23992;BMP280;12205;50.600;4.608;2023-02-15T09:45:45;101178.94;;;7.58
23992;BMP280;12205;50.600;4.608;2023-02-15T09:48:39;101187.41;;;7.68
23992;BMP280;12205;50.600;4.608;2023-02-15T09:51:38;101189.00;;;7.78
23992;BMP280;12205;50.600;4.608;2023-02-15T09:54:27;101192.47;;;7.87
23992;BMP280;12205;50.600;4.608;2023-02-15T09:57:04;101188.44;;;7.99
23992;BMP280;12205;50.600;4.608;2023-02-15T09:59:44;101203.47;;;8.12
23992;BMP280;12205;50.600;4.608;2023-02-15T10:02:31;101206.31;;;8.24
23992;BMP280;12205;50.600;4.608;2023-02-15T10:05:19;101211.34;;;8.35
23992;BMP280;12205;50.600;4.608;2023-02-15T10:08:32;101225.31;;;8.49
23992;BMP280;12205;50.600;4.608;2023-02-15T10:11:14;101226.56;;;8.60
23992;BMP280;12205;50.600;4.608;2023-02-15T10:14:28;101226.41;;;8.74
23992;BMP280;12205;50.600;4.608;2023-02-15T10:17:21;101242.53;;;8.87
23992;BMP280;12205;50.600;4.608;2023-02-15T10:20:03;101243.75;;;8.98
23992;BMP280;12205;50.600;4.608;2023-02-15T10:22:51;101242.94;;;9.06
23992;BMP280;12205;50.600;4.608;2023-02-15T10:25:33;101246.56;;;9.19
23992;BMP280;12205;50.600;4.608;2023-02-15T10:28:06;101253.16;;;9.22
23992;BMP280;12205;50.600;4.608;2023-02-15T10:30:46;101247.28;;;9.28
23992;BMP280;12205;50.600;4.608;2023-02-15T10:33:34;101257.66;;;9.39
23992;BMP280;12205;50.600;4.608;2023-02-15T10:36:20;101250.41;;;9.48
23992;BMP280;12205;50.600;4.608;2023-02-15T10:38:58;101241.84;;;9.63
23992;BMP280;12205;50.600;4.608;2023-02-15T10:41:38;101245.25;;;9.72
23992;BMP280;12205;50.600;4.608;2023-02-15T10:44:31;101247.72;;;9.86
23992;BMP280;12205;50.600;4.608;2023-02-15T10:50:24;101248.16;;;10.09
23992;BMP280;12205;50.600;4.608;2023-02-15T10:53:15;101244.13;;;10.24
23992;BMP280;12205;50.600;4.608;2023-02-15T10:55:55;101240.28;;;10.34
23992;BMP280;12205;50.600;4.608;2023-02-15T10:58:38;101247.69;;;10.37
23992;BMP280;12205;50.600;4.608;2023-02-15T11:01:18;101250.13;;;10.42
23992;BMP280;12205;50.600;4.608;2023-02-15T11:04:38;101238.53;;;10.59
23992;BMP280;12205;50.600;4.608;2023-02-15T11:07:16;101243.84;;;10.80
23992;BMP280;12205;50.600;4.608;2023-02-15T11:09:49;101244.94;;;10.92
23992;BMP280;12205;50.600;4.608;2023-02-15T11:12:24;101237.63;;;11.01
23992;BMP280;12205;50.600;4.608;2023-02-15T11:14:58;101243.22;;;11.08
23992;BMP280;12205;50.600;4.608;2023-02-15T11:17:35;101245.69;;;11.13
23992;BMP280;12205;50.600;4.608;2023-02-15T11:20:16;101246.81;;;11.25
23992;BMP280;12205;50.600;4.608;2023-02-15T11:22:48;101242.69;;;11.39
23992;BMP280;12205;50.600;4.608;2023-02-15T11:25:23;101239.56;;;11.50
23992;BMP280;12205;50.600;4.608;2023-02-15T11:27:52;101227.19;;;11.57
23992;BMP280;12205;50.600;4.608;2023-02-15T11:30:23;101222.81;;;11.65
23992;BMP280;12205;50.600;4.608;2023-02-15T11:32:55;101218.69;;;11.68
23992;BMP280;12205;50.600;4.608;2023-02-15T11:35:27;101214.88;;;11.81
23992;BMP280;12205;50.600;4.608;2023-02-15T11:38:05;101218.22;;;11.90
23992;BMP280;12205;50.600;4.608;2023-02-15T11:40:46;101216.50;;;11.98
23992;BMP280;12205;50.600;4.608;2023-02-15T11:43:20;101213.72;;;12.07
23992;BMP280;12205;50.600;4.608;2023-02-15T11:45:50;101201.72;;;12.17
23992;BMP280;12205;50.600;4.608;2023-02-15T11:48:17;101206.16;;;12.25
23992;BMP280;12205;50.600;4.608;2023-02-15T11:50:45;101200.00;;;12.24
23992;BMP280;12205;50.600;4.608;2023-02-15T11:53:16;101204.63;;;12.40
23992;BMP280;12205;50.600;4.608;2023-02-15T11:55:45;101200.91;;;12.44
23992;BMP280;12205;50.600;4.608;2023-02-15T11:58:25;101199.88;;;12.49
23992;BMP280;12205;50.600;4.608;2023-02-15T12:00:58;101197.56;;;12.47
23992;BMP280;12205;50.600;4.608;2023-02-15T12:03:36;101194.69;;;12.56
23992;BMP280;12205;50.600;4.608;2023-02-15T12:06:17;101200.78;;;12.69
23992;BMP280;12205;50.600;4.608;2023-02-15T12:08:56;101201.03;;;12.80
23992;BMP280;12205;50.600;4.608;2023-02-15T12:11:32;101187.97;;;12.94
23992;BMP280;12205;50.600;4.608;2023-02-15T12:14:03;101186.31;;;13.05
23992;BMP280;12205;50.600;4.608;2023-02-15T12:16:41;101185.09;;;13.03
23992;BMP280;12205;50.600;4.608;2023-02-15T12:19:29;101187.00;;;13.02
23992;BMP280;12205;50.600;4.608;2023-02-15T12:22:00;101181.03;;;12.93
23992;BMP280;12205;50.600;4.608;2023-02-15T12:24:34;101172.03;;;13.01
23992;BMP280;12205;50.600;4.608;2023-02-15T12:27:10;101172.13;;;13.05
23992;BMP280;12205;50.600;4.608;2023-02-15T12:29:45;101170.66;;;13.07
23992;BMP280;12205;50.600;4.608;2023-02-15T12:32:18;101166.16;;;13.12
23992;BMP280;12205;50.600;4.608;2023-02-15T12:34:46;101161.28;;;13.17
23992;BMP280;12205;50.600;4.608;2023-02-15T12:37:21;101159.09;;;13.23
23992;BMP280;12205;50.600;4.608;2023-02-15T12:39:57;101159.94;;;13.27
23992;BMP280;12205;50.600;4.608;2023-02-15T12:42:25;101164.34;;;13.35
23992;BMP280;12205;50.600;4.608;2023-02-15T12:45:01;101156.72;;;13.37
23992;BMP280;12205;50.600;4.608;2023-02-15T12:47:29;101162.13;;;13.57
23992;BMP280;12205;50.600;4.608;2023-02-15T12:50:22;101155.19;;;13.75
23992;BMP280;12205;50.600;4.608;2023-02-15T12:53:07;101159.31;;;13.89
23992;BMP280;12205;50.600;4.608;2023-02-15T12:55:36;101153.44;;;14.06
23992;BMP280;12205;50.600;4.608;2023-02-15T12:58:08;101152.44;;;14.34
23992;BMP280;12205;50.600;4.608;2023-02-15T13:00:36;101155.72;;;14.70
23992;BMP280;12205;50.600;4.608;2023-02-15T13:03:04;101157.34;;;15.05
23992;BMP280;12205;50.600;4.608;2023-02-15T13:05:35;101155.03;;;15.64
23992;BMP280;12205;50.600;4.608;2023-02-15T13:08:11;101151.72;;;16.19
23992;BMP280;12205;50.600;4.608;2023-02-15T13:10:53;101152.69;;;16.44
23992;BMP280;12205;50.600;4.608;2023-02-15T13:13:25;101150.50;;;16.64
23992;BMP280;12205;50.600;4.608;2023-02-15T13:15:58;101152.22;;;16.90
23992;BMP280;12205;50.600;4.608;2023-02-15T13:18:31;101139.28;;;17.28
23992;BMP280;12205;50.600;4.608;2023-02-15T13:21:10;101148.28;;;17.61
23992;BMP280;12205;50.600;4.608;2023-02-15T13:23:42;101139.00;;;17.80
23992;BMP280;12205;50.600;4.608;2023-02-15T13:26:19;101131.66;;;18.02
23992;BMP280;12205;50.600;4.608;2023-02-15T13:28:50;101136.69;;;18.22
23992;BMP280;12205;50.600;4.608;2023-02-15T13:31:25;101131.63;;;18.53
23992;BMP280;12205;50.600;4.608;2023-02-15T13:33:58;101130.81;;;18.77
23992;BMP280;12205;50.600;4.608;2023-02-15T13:36:34;101120.72;;;18.81
23992;BMP280;12205;50.600;4.608;2023-02-15T13:39:24;101126.06;;;18.96
23992;BMP280;12205;50.600;4.608;2023-02-15T13:42:05;101122.22;;;18.97
23992;BMP280;12205;50.600;4.608;2023-02-15T13:45:05;101131.94;;;18.76
23992;BMP280;12205;50.600;4.608;2023-02-15T13:47:44;101124.63;;;18.66
23992;BMP280;12205;50.600;4.608;2023-02-15T13:50:43;101133.47;;;18.84
23992;BMP280;12205;50.600;4.608;2023-02-15T13:53:30;101134.19;;;19.03
23992;BMP280;12205;50.600;4.608;2023-02-15T13:56:09;101133.34;;;19.20
23992;BMP280;12205;50.600;4.608;2023-02-15T13:59:28;101132.81;;;19.47
23992;BMP280;12205;50.600;4.608;2023-02-15T14:02:33;101125.88;;;19.35
23992;BMP280;12205;50.600;4.608;2023-02-15T14:05:25;101120.00;;;19.51
23992;BMP280;12205;50.600;4.608;2023-02-15T14:08:06;101120.78;;;19.48
23992;BMP280;12205;50.600;4.608;2023-02-15T14:10:51;101131.72;;;19.34
23992;BMP280;12205;50.600;4.608;2023-02-15T14:13:54;101136.47;;;19.08
23992;BMP280;12205;50.600;4.608;2023-02-15T14:16:36;101132.28;;;18.89
23992;BMP280;12205;50.600;4.608;2023-02-15T14:19:16;101130.47;;;18.54
23992;BMP280;12205;50.600;4.608;2023-02-15T14:21:53;101140.16;;;18.47
23992;BMP280;12205;50.600;4.608;2023-02-15T14:24:31;101140.97;;;18.30
23992;BMP280;12205;50.600;4.608;2023-02-15T14:27:15;101140.56;;;18.06
23992;BMP280;12205;50.600;4.608;2023-02-15T14:29:52;101144.44;;;17.91
23992;BMP280;12205;50.600;4.608;2023-02-15T14:32:29;101137.84;;;17.74
23992;BMP280;12205;50.600;4.608;2023-02-15T14:35:00;101137.81;;;17.60
23992;BMP280;12205;50.600;4.608;2023-02-15T14:37:42;101137.03;;;17.45
23992;BMP280;12205;50.600;4.608;2023-02-15T14:40:27;101136.63;;;17.50
23992;BMP280;12205;50.600;4.608;2023-02-15T14:43:27;101141.28;;;17.53
23992;BMP280;12205;50.600;4.608;2023-02-15T14:46:07;101142.34;;;17.27
23992;BMP280;12205;50.600;4.608;2023-02-15T14:48:43;101144.56;;;17.07
23992;BMP280;12205;50.600;4.608;2023-02-15T14:51:59;101148.28;;;16.77
23992;BMP280;12205;50.600;4.608;2023-02-15T14:54:58;101144.31;;;16.60
23992;BMP280;12205;50.600;4.608;2023-02-15T14:57:28;101141.16;;;16.51